< < Back
Terminal Aerodrome Forecast


Current Version              Previous Versions:   1  2  3  4  5  6  7  8  9  

Terminal Aerodrome Forecast

094
FTUS42 KFFC 231000 AAA
TAFCSG
TAF AMD
KCSG 231025Z 2310/2406 05007KT P6SM BKN008
      TEMPO 2310/2314 SCT008
     FM231400 08010KT P6SM BKN010
     FM231600 08010KT P6SM SCT030
     FM240000 08008KT P6SM SCT040=

Latest METAR

120
SAUS70 KWBC 231200 RRA
MTRCSG
METAR KCSG 231151Z AUTO 06003KT 10SM FEW007 BKN017 17/16 A3014 RMK AO2
SLP201 70015 T01720156 10178 20161 51017


USA.gov is the U.S. government's official web portal to all federal, state and local government web resources and services.